Date,TemperatureHighF,TemperatureAvgF,TemperatureLowF,DewpointHighF,DewpointAvgF,DewpointLowF,HumidityHigh,HumidityAvg,HumidityLow,PressureMaxIn,PressureMinIn,WindSpeedMaxMPH,WindSpeedAvgMPH,GustSpeedMaxMPH,PrecipitationSumIn
2013-9-1,93.2,81.2,70.1,74.0,70.2,67.4,92,71,47,29.86,29.77,8,0,8,0.00
2013-9-2,92.7,80.3,69.8,75.2,71.8,67.8,97,77,48,29.82,29.73,6,0,6,0.10
2013-9-3,88.3,77.7,67.9,74.0,64.3,56.1,95,66,41,29.98,29.74,7,0,7,0.04
2013-9-4,86.2,71.9,59.7,61.6,56.1,47.8,87,61,31,30.10,29.98,7,0,7,0.00
2013-9-5,88.1,73.7,62.4,63.9,58.8,49.5,89,62,43,30.15,30.02,5,0,5,0.00
2013-9-6,79.8,67.7,57.8,54.4,49.2,44.6,76,54,33,30.28,30.15,5,0,5,0.00
2013-9-7,83.0,69.1,54.5,63.3,57.2,48.4,81,67,44,30.17,29.95,7,0,7,0.00
2013-9-8,89.3,76.6,66.2,68.3,63.3,57.0,80,65,44,30.06,29.89,5,0,5,0.00
2013-9-9,79.0,72.1,63.8,67.2,57.8,48.4,79,61,51,30.22,30.06,8,0,8,0.00
2013-9-10,91.5,81.1,72.5,74.0,70.1,65.6,79,70,55,30.19,30.10,9,1,9,0.00
2013-9-11,95.0,83.9,74.5,76.7,71.0,67.6,80,67,46,30.16,30.01,10,0,10,0.00
2013-9-12,91.5,77.8,70.2,76.1,68.7,64.4,83,74,54,30.01,29.76,7,0,7,0.36
2013-9-13,79.8,70.0,61.4,64.4,57.4,50.8,82,66,41,29.95,29.72,3,0,5,0.00
2013-9-14,71.9,61.4,52.9,51.4,47.4,45.0,79,62,42,30.19,29.95,5,0,5,0.00
2013-9-15,77.5,63.8,49.4,58.8,50.8,43.7,81,65,40,30.26,30.11,8,0,8,0.00
2013-9-16,73.3,65.3,59.3,60.5,56.8,52.8,79,74,58,30.25,30.06,6,0,6,0.00
2013-9-17,71.2,60.1,50.9,53.4,45.4,37.4,79,61,34,30.45,30.25,7,0,7,0.00
2013-9-18,73.3,58.5,46.9,52.7,46.4,41.3,81,67,36,30.37,30.21,7,0,7,0.00
2013-9-19,77.9,65.5,52.6,60.1,53.9,46.9,81,68,47,30.23,30.10,4,0,9,0.00
2013-9-20,80.6,68.9,57.0,61.2,57.2,50.9,80,68,49,30.12,29.98,9,1,9,0.00
2013-9-21,76.5,67.6,63.1,63.3,59.6,56.5,82,76,59,30.00,29.70,11,1,11,1.64
2013-9-22,76.5,64.6,55.9,60.7,54.7,49.2,84,71,50,29.97,29.75,6,0,6,0.01
2013-9-23,68.8,58.0,51.7,49.6,47.1,43.2,80,68,46,30.12,29.97,5,0,5,0.00
2013-9-24,73.3,59.5,47.2,54.3,47.0,41.7,81,65,42,30.14,29.97,6,0,6,0.00
2013-9-25,79.1,61.4,49.3,55.3,48.3,41.8,80,65,28,30.01,29.90,1,0,4,0.00
2013-9-26,78.1,63.1,54.3,58.1,52.2,48.3,80,69,46,30.10,29.94,2,0,8,0.00
2013-9-27,71.4,62.7,54.7,58.9,54.2,48.7,80,74,59,30.27,30.10,6,0,6,0.00
2013-9-28,70.8,62.3,56.3,57.5,53.2,50.2,80,73,54,30.33,30.24,6,0,6,0.00
2013-9-29,72.3,61.3,51.6,59.1,52.7,46.0,82,74,54,30.24,30.09,4,0,4,0.00
2013-9-30,75.2,62.9,52.0,57.4,52.4,46.4,82,70,48,30.12,30.01,5,0,5,0.00